sensor_id;sensor_type;location;lat;lon;timestamp;temperature;humidity
21563;DHT22;10942;47.894;11.424;2023-02-24T00:01:26;3.60;99.90
21563;DHT22;10942;47.894;11.424;2023-02-24T00:03:57;3.60;99.90
21563;DHT22;10942;47.894;11.424;2023-02-24T00:06:25;3.50;99.90
21563;DHT22;10942;47.894;11.424;2023-02-24T00:08:51;3.80;99.90
21563;DHT22;10942;47.894;11.424;2023-02-24T00:11:18;3.50;99.90
21563;DHT22;10942;47.894;11.424;2023-02-24T00:13:44;3.40;99.90
21563;DHT22;10942;47.894;11.424;2023-02-24T00:16:15;3.40;99.90
21563;DHT22;10942;47.894;11.424;2023-02-24T00:18:43;3.50;99.90
21563;DHT22;10942;47.894;11.424;2023-02-24T00:21:14;3.40;99.90
21563;DHT22;10942;47.894;11.424;2023-02-24T00:23:45;3.60;99.90
21563;DHT22;10942;47.894;11.424;2023-02-24T00:26:13;3.50;99.90
21563;DHT22;10942;47.894;11.424;2023-02-24T00:28:39;3.80;99.90
21563;DHT22;10942;47.894;11.424;2023-02-24T00:31:07;3.50;99.90
21563;DHT22;10942;47.894;11.424;2023-02-24T00:33:39;3.50;99.90
21563;DHT22;10942;47.894;11.424;2023-02-24T00:36:07;3.50;99.90
21563;DHT22;10942;47.894;11.424;2023-02-24T00:38:34;3.50;99.90
21563;DHT22;10942;47.894;11.424;2023-02-24T00:41:17;3.60;99.90
21563;DHT22;10942;47.894;11.424;2023-02-24T00:43:45;3.50;99.90
21563;DHT22;10942;47.894;11.424;2023-02-24T00:46:21;3.40;99.90
21563;DHT22;10942;47.894;11.424;2023-02-24T00:48:51;3.50;99.90
21563;DHT22;10942;47.894;11.424;2023-02-24T00:51:22;3.50;99.90
21563;DHT22;10942;47.894;11.424;2023-02-24T00:53:52;3.50;99.90
21563;DHT22;10942;47.894;11.424;2023-02-24T00:56:22;3.80;99.90
21563;DHT22;10942;47.894;11.424;2023-02-24T00:58:48;3.50;99.90
21563;DHT22;10942;47.894;11.424;2023-02-24T01:01:18;3.40;99.90
21563;DHT22;10942;47.894;11.424;2023-02-24T01:03:45;3.60;99.90
21563;DHT22;10942;47.894;11.424;2023-02-24T01:06:14;3.50;99.90
21563;DHT22;10942;47.894;11.424;2023-02-24T01:08:42;3.70;99.90
21563;DHT22;10942;47.894;11.424;2023-02-24T01:11:14;3.50;99.90
21563;DHT22;10942;47.894;11.424;2023-02-24T01:13:59;3.70;99.90
21563;DHT22;10942;47.894;11.424;2023-02-24T01:16:25;3.50;99.90
21563;DHT22;10942;47.894;11.424;2023-02-24T01:18:51;3.30;99.90
21563;DHT22;10942;47.894;11.424;2023-02-24T01:21:18;3.40;99.90
21563;DHT22;10942;47.894;11.424;2023-02-24T01:23:49;3.40;99.90
21563;DHT22;10942;47.894;11.424;2023-02-24T01:26:18;3.40;99.90
21563;DHT22;10942;47.894;11.424;2023-02-24T01:28:44;3.50;99.90
21563;DHT22;10942;47.894;11.424;2023-02-24T01:31:11;3.40;99.90
21563;DHT22;10942;47.894;11.424;2023-02-24T01:33:37;3.70;99.90
21563;DHT22;10942;47.894;11.424;2023-02-24T01:38:40;3.50;99.90
21563;DHT22;10942;47.894;11.424;2023-02-24T01:41:18;3.40;99.90
21563;DHT22;10942;47.894;11.424;2023-02-24T01:51:54;3.50;99.90
21563;DHT22;10942;47.894;11.424;2023-02-24T01:54:25;3.50;99.90
21563;DHT22;10942;47.894;11.424;2023-02-24T01:56:52;3.60;99.90
21563;DHT22;10942;47.894;11.424;2023-02-24T01:59:20;3.20;99.90
21563;DHT22;10942;47.894;11.424;2023-02-24T02:01:49;3.40;99.90
21563;DHT22;10942;47.894;11.424;2023-02-24T02:04:38;3.40;99.90
21563;DHT22;10942;47.894;11.424;2023-02-24T02:07:06;3.10;99.90
21563;DHT22;10942;47.894;11.424;2023-02-24T02:09:37;3.10;99.90
21563;DHT22;10942;47.894;11.424;2023-02-24T02:12:02;3.10;99.90
21563;DHT22;10942;47.894;11.424;2023-02-24T02:14:29;3.10;99.90
21563;DHT22;10942;47.894;11.424;2023-02-24T02:31:08;2.90;99.90
21563;DHT22;10942;47.894;11.424;2023-02-24T02:36:30;2.90;99.90
21563;DHT22;10942;47.894;11.424;2023-02-24T02:47:14;2.70;99.90
21563;DHT22;10942;47.894;11.424;2023-02-24T02:49:50;2.70;99.90
21563;DHT22;10942;47.894;11.424;2023-02-24T02:52:28;2.70;99.90
21563;DHT22;10942;47.894;11.424;2023-02-24T02:55:17;2.70;99.90
21563;DHT22;10942;47.894;11.424;2023-02-24T02:57:46;2.60;99.90
21563;DHT22;10942;47.894;11.424;2023-02-24T03:00:17;2.60;99.90
21563;DHT22;10942;47.894;11.424;2023-02-24T03:02:51;2.50;99.90
21563;DHT22;10942;47.894;11.424;2023-02-24T03:05:24;2.40;99.90
21563;DHT22;10942;47.894;11.424;2023-02-24T03:07:55;2.30;99.90
21563;DHT22;10942;47.894;11.424;2023-02-24T03:10:25;2.30;99.90
21563;DHT22;10942;47.894;11.424;2023-02-24T03:12:54;2.30;99.90
21563;DHT22;10942;47.894;11.424;2023-02-24T03:15:25;2.30;99.90
21563;DHT22;10942;47.894;11.424;2023-02-24T03:18:08;2.30;99.90
21563;DHT22;10942;47.894;11.424;2023-02-24T03:20:50;2.20;99.90
21563;DHT22;10942;47.894;11.424;2023-02-24T03:23:20;2.20;99.90
21563;DHT22;10942;47.894;11.424;2023-02-24T03:26:09;2.10;99.90
21563;DHT22;10942;47.894;11.424;2023-02-24T03:34:18;2.10;99.90
21563;DHT22;10942;47.894;11.424;2023-02-24T03:36:46;2.10;99.90
21563;DHT22;10942;47.894;11.424;2023-02-24T03:39:12;2.10;99.90
21563;DHT22;10942;47.894;11.424;2023-02-24T03:41:54;2.10;99.90
21563;DHT22;10942;47.894;11.424;2023-02-24T03:44:23;2.10;99.90
21563;DHT22;10942;47.894;11.424;2023-02-24T03:46:50;2.00;99.90
21563;DHT22;10942;47.894;11.424;2023-02-24T03:49:17;2.00;99.90
21563;DHT22;10942;47.894;11.424;2023-02-24T03:52:13;2.00;99.90
21563;DHT22;10942;47.894;11.424;2023-02-24T03:57:50;2.00;99.90
21563;DHT22;10942;47.894;11.424;2023-02-24T04:08:33;2.00;99.90
21563;DHT22;10942;47.894;11.424;2023-02-24T04:11:27;2.00;99.90
21563;DHT22;10942;47.894;11.424;2023-02-24T04:14:04;2.00;99.90
21563;DHT22;10942;47.894;11.424;2023-02-24T04:19:14;2.00;99.90
21563;DHT22;10942;47.894;11.424;2023-02-24T04:21:44;1.90;99.90
21563;DHT22;10942;47.894;11.424;2023-02-24T04:24:21;2.00;99.90
21563;DHT22;10942;47.894;11.424;2023-02-24T04:26:49;2.00;99.90
21563;DHT22;10942;47.894;11.424;2023-02-24T04:31:52;1.90;99.90
21563;DHT22;10942;47.894;11.424;2023-02-24T04:34:19;1.80;99.90
21563;DHT22;10942;47.894;11.424;2023-02-24T04:36:46;1.70;99.90
21563;DHT22;10942;47.894;11.424;2023-02-24T04:39:16;1.80;99.90
21563;DHT22;10942;47.894;11.424;2023-02-24T04:41:45;1.80;99.90
21563;DHT22;10942;47.894;11.424;2023-02-24T04:44:18;1.80;99.90
21563;DHT22;10942;47.894;11.424;2023-02-24T04:46:45;1.70;99.90
21563;DHT22;10942;47.894;11.424;2023-02-24T04:49:11;1.80;99.90
21563;DHT22;10942;47.894;11.424;2023-02-24T04:51:38;1.80;99.90
21563;DHT22;10942;47.894;11.424;2023-02-24T04:54:08;1.90;99.90
21563;DHT22;10942;47.894;11.424;2023-02-24T04:56:35;1.90;99.90
21563;DHT22;10942;47.894;11.424;2023-02-24T04:59:01;1.90;99.90
21563;DHT22;10942;47.894;11.424;2023-02-24T05:01:27;2.00;99.90
21563;DHT22;10942;47.894;11.424;2023-02-24T05:03:53;2.00;99.90
21563;DHT22;10942;47.894;11.424;2023-02-24T05:06:19;2.00;99.90
21563;DHT22;10942;47.894;11.424;2023-02-24T05:08:45;2.10;99.90
21563;DHT22;10942;47.894;11.424;2023-02-24T05:11:14;2.00;99.90
21563;DHT22;10942;47.894;11.424;2023-02-24T05:13:41;2.00;99.90
21563;DHT22;10942;47.894;11.424;2023-02-24T05:16:11;2.00;99.90
21563;DHT22;10942;47.894;11.424;2023-02-24T05:18:38;2.00;99.90
21563;DHT22;10942;47.894;11.424;2023-02-24T05:21:07;2.10;99.90
21563;DHT22;10942;47.894;11.424;2023-02-24T05:23:53;2.10;99.90
21563;DHT22;10942;47.894;11.424;2023-02-24T05:26:21;2.10;99.90
21563;DHT22;10942;47.894;11.424;2023-02-24T05:28:48;2.20;99.90
21563;DHT22;10942;47.894;11.424;2023-02-24T05:31:22;2.20;99.90
21563;DHT22;10942;47.894;11.424;2023-02-24T05:33:52;2.10;99.90
21563;DHT22;10942;47.894;11.424;2023-02-24T05:36:27;2.10;99.90
21563;DHT22;10942;47.894;11.424;2023-02-24T05:38:55;2.10;99.90
21563;DHT22;10942;47.894;11.424;2023-02-24T05:41:27;2.10;99.90
21563;DHT22;10942;47.894;11.424;2023-02-24T05:44:02;2.20;99.90
21563;DHT22;10942;47.894;11.424;2023-02-24T05:46:34;2.10;99.90
21563;DHT22;10942;47.894;11.424;2023-02-24T05:49:06;2.20;99.90
21563;DHT22;10942;47.894;11.424;2023-02-24T05:51:35;2.10;99.90
21563;DHT22;10942;47.894;11.424;2023-02-24T05:54:06;2.20;99.90
21563;DHT22;10942;47.894;11.424;2023-02-24T05:56:34;2.20;99.90
21563;DHT22;10942;47.894;11.424;2023-02-24T05:59:02;2.20;99.90
21563;DHT22;10942;47.894;11.424;2023-02-24T06:01:32;2.30;99.90
21563;DHT22;10942;47.894;11.424;2023-02-24T06:04:05;2.30;99.90
21563;DHT22;10942;47.894;11.424;2023-02-24T06:06:41;2.30;99.90
21563;DHT22;10942;47.894;11.424;2023-02-24T06:09:12;2.30;99.90
21563;DHT22;10942;47.894;11.424;2023-02-24T06:11:39;2.40;99.90
21563;DHT22;10942;47.894;11.424;2023-02-24T06:14:05;2.30;99.90
21563;DHT22;10942;47.894;11.424;2023-02-24T06:16:33;2.30;99.90
21563;DHT22;10942;47.894;11.424;2023-02-24T06:18:59;2.40;99.90
21563;DHT22;10942;47.894;11.424;2023-02-24T06:21:25;2.40;99.90
21563;DHT22;10942;47.894;11.424;2023-02-24T06:23:57;2.50;99.90
21563;DHT22;10942;47.894;11.424;2023-02-24T06:26:24;2.50;99.90
21563;DHT22;10942;47.894;11.424;2023-02-24T06:28:55;2.50;99.90
21563;DHT22;10942;47.894;11.424;2023-02-24T06:31:22;2.50;99.90
21563;DHT22;10942;47.894;11.424;2023-02-24T06:33:49;2.50;99.90
21563;DHT22;10942;47.894;11.424;2023-02-24T06:36:14;2.50;99.90
21563;DHT22;10942;47.894;11.424;2023-02-24T06:38:41;2.60;99.90
21563;DHT22;10942;47.894;11.424;2023-02-24T06:41:07;2.70;99.90
21563;DHT22;10942;47.894;11.424;2023-02-24T06:43:41;2.70;99.90
21563;DHT22;10942;47.894;11.424;2023-02-24T06:46:09;2.70;99.90
21563;DHT22;10942;47.894;11.424;2023-02-24T06:48:35;2.70;99.90
21563;DHT22;10942;47.894;11.424;2023-02-24T06:51:11;2.80;99.90
21563;DHT22;10942;47.894;11.424;2023-02-24T06:53:41;2.80;99.90
21563;DHT22;10942;47.894;11.424;2023-02-24T06:56:13;2.90;99.90
21563;DHT22;10942;47.894;11.424;2023-02-24T06:58:47;3.10;99.90
21563;DHT22;10942;47.894;11.424;2023-02-24T07:01:19;3.40;99.90
21563;DHT22;10942;47.894;11.424;2023-02-24T07:03:51;3.60;99.90
21563;DHT22;10942;47.894;11.424;2023-02-24T07:06:26;3.90;99.90
21563;DHT22;10942;47.894;11.424;2023-02-24T07:08:55;4.20;99.90
21563;DHT22;10942;47.894;11.424;2023-02-24T07:11:22;4.60;99.90
21563;DHT22;10942;47.894;11.424;2023-02-24T07:13:48;4.70;99.90
21563;DHT22;10942;47.894;11.424;2023-02-24T07:16:17;4.90;99.90
21563;DHT22;10942;47.894;11.424;2023-02-24T07:18:43;5.10;99.90
21563;DHT22;10942;47.894;11.424;2023-02-24T07:21:13;5.00;99.90
21563;DHT22;10942;47.894;11.424;2023-02-24T07:23:43;5.00;99.90
21563;DHT22;10942;47.894;11.424;2023-02-24T07:26:13;5.00;99.90
21563;DHT22;10942;47.894;11.424;2023-02-24T07:28:41;5.00;99.90
21563;DHT22;10942;47.894;11.424;2023-02-24T07:31:10;5.30;99.90
21563;DHT22;10942;47.894;11.424;2023-02-24T07:33:40;5.30;99.90
21563;DHT22;10942;47.894;11.424;2023-02-24T07:36:11;5.30;99.90
21563;DHT22;10942;47.894;11.424;2023-02-24T07:38:42;5.40;99.90
21563;DHT22;10942;47.894;11.424;2023-02-24T07:41:09;5.30;99.90
21563;DHT22;10942;47.894;11.424;2023-02-24T07:43:36;5.20;99.90
21563;DHT22;10942;47.894;11.424;2023-02-24T07:46:09;5.20;99.90
21563;DHT22;10942;47.894;11.424;2023-02-24T07:48:37;5.40;99.90
21563;DHT22;10942;47.894;11.424;2023-02-24T07:51:07;5.40;99.90
21563;DHT22;10942;47.894;11.424;2023-02-24T07:53:33;5.50;99.90
21563;DHT22;10942;47.894;11.424;2023-02-24T07:56:04;5.50;99.90
21563;DHT22;10942;47.894;11.424;2023-02-24T07:58:31;5.60;99.90
21563;DHT22;10942;47.894;11.424;2023-02-24T08:01:00;5.50;99.90
21563;DHT22;10942;47.894;11.424;2023-02-24T08:03:36;5.60;99.90
21563;DHT22;10942;47.894;11.424;2023-02-24T08:06:06;5.60;99.90
21563;DHT22;10942;47.894;11.424;2023-02-24T08:08:55;5.50;99.90
21563;DHT22;10942;47.894;11.424;2023-02-24T08:11:29;5.70;99.90
21563;DHT22;10942;47.894;11.424;2023-02-24T08:14:02;5.80;99.90
21563;DHT22;10942;47.894;11.424;2023-02-24T08:16:28;6.00;99.90
21563;DHT22;10942;47.894;11.424;2023-02-24T08:19:08;6.10;99.90
21563;DHT22;10942;47.894;11.424;2023-02-24T08:21:38;6.20;99.90
21563;DHT22;10942;47.894;11.424;2023-02-24T08:24:06;6.00;99.90
21563;DHT22;10942;47.894;11.424;2023-02-24T08:26:49;6.10;99.90
21563;DHT22;10942;47.894;11.424;2023-02-24T08:29:30;6.10;99.90
21563;DHT22;10942;47.894;11.424;2023-02-24T08:31:57;6.20;99.90
21563;DHT22;10942;47.894;11.424;2023-02-24T08:34:23;6.20;99.90
21563;DHT22;10942;47.894;11.424;2023-02-24T08:36:56;6.20;99.90
21563;DHT22;10942;47.894;11.424;2023-02-24T08:39:23;6.30;99.90
21563;DHT22;10942;47.894;11.424;2023-02-24T08:41:49;6.30;99.90
21563;DHT22;10942;47.894;11.424;2023-02-24T08:44:17;6.60;99.90
21563;DHT22;10942;47.894;11.424;2023-02-24T08:46:45;6.70;99.90
21563;DHT22;10942;47.894;11.424;2023-02-24T08:51:43;6.80;99.90
21563;DHT22;10942;47.894;11.424;2023-02-24T08:54:15;7.90;99.90
21563;DHT22;10942;47.894;11.424;2023-02-24T08:59:11;8.50;99.90
21563;DHT22;10942;47.894;11.424;2023-02-24T09:01:58;9.00;99.90
21563;DHT22;10942;47.894;11.424;2023-02-24T09:04:44;9.30;99.90
21563;DHT22;10942;47.894;11.424;2023-02-24T09:07:25;9.30;99.90
21563;DHT22;10942;47.894;11.424;2023-02-24T09:09:52;9.20;99.90
21563;DHT22;10942;47.894;11.424;2023-02-24T09:12:25;9.20;99.90
21563;DHT22;10942;47.894;11.424;2023-02-24T09:14:56;9.20;99.90
21563;DHT22;10942;47.894;11.424;2023-02-24T09:17:25;9.30;99.90
21563;DHT22;10942;47.894;11.424;2023-02-24T09:20:12;9.30;99.90
21563;DHT22;10942;47.894;11.424;2023-02-24T09:22:57;9.30;99.90
21563;DHT22;10942;47.894;11.424;2023-02-24T09:25:34;9.30;99.90
21563;DHT22;10942;47.894;11.424;2023-02-24T09:28:12;9.10;99.90
21563;DHT22;10942;47.894;11.424;2023-02-24T09:30:47;9.20;99.90
21563;DHT22;10942;47.894;11.424;2023-02-24T09:36:04;9.50;99.90
21563;DHT22;10942;47.894;11.424;2023-02-24T09:41:46;9.60;99.90
21563;DHT22;10942;47.894;11.424;2023-02-24T09:47:09;9.40;99.90
21563;DHT22;10942;47.894;11.424;2023-02-24T09:49:53;9.10;99.90
21563;DHT22;10942;47.894;11.424;2023-02-24T09:52:28;8.90;99.90
21563;DHT22;10942;47.894;11.424;2023-02-24T10:03:32;9.40;99.90
21563;DHT22;10942;47.894;11.424;2023-02-24T10:06:21;9.60;99.90
21563;DHT22;10942;47.894;11.424;2023-02-24T10:09:31;10.20;99.90
21563;DHT22;10942;47.894;11.424;2023-02-24T10:14:45;10.70;99.90
21563;DHT22;10942;47.894;11.424;2023-02-24T10:17:23;10.90;99.90
21563;DHT22;10942;47.894;11.424;2023-02-24T10:19:56;10.80;99.90
21563;DHT22;10942;47.894;11.424;2023-02-24T10:22:38;10.80;99.90
21563;DHT22;10942;47.894;11.424;2023-02-24T10:28:32;10.70;99.90
21563;DHT22;10942;47.894;11.424;2023-02-24T10:31:07;10.80;99.90
21563;DHT22;10942;47.894;11.424;2023-02-24T10:33:51;11.00;99.90
21563;DHT22;10942;47.894;11.424;2023-02-24T10:36:20;10.90;99.90
21563;DHT22;10942;47.894;11.424;2023-02-24T10:38:55;10.80;99.90
21563;DHT22;10942;47.894;11.424;2023-02-24T10:41:22;10.90;99.90
21563;DHT22;10942;47.894;11.424;2023-02-24T10:43:57;11.00;99.90
21563;DHT22;10942;47.894;11.424;2023-02-24T10:46:29;10.90;99.90
21563;DHT22;10942;47.894;11.424;2023-02-24T10:49:00;10.60;99.90
21563;DHT22;10942;47.894;11.424;2023-02-24T10:51:52;10.50;99.90
21563;DHT22;10942;47.894;11.424;2023-02-24T10:54:26;10.50;99.90
21563;DHT22;10942;47.894;11.424;2023-02-24T10:57:10;10.50;99.90
21563;DHT22;10942;47.894;11.424;2023-02-24T10:59:59;10.60;99.90
21563;DHT22;10942;47.894;11.424;2023-02-24T11:02:52;10.50;99.90
21563;DHT22;10942;47.894;11.424;2023-02-24T11:05:41;10.70;99.90
21563;DHT22;10942;47.894;11.424;2023-02-24T11:08:26;10.70;99.90
21563;DHT22;10942;47.894;11.424;2023-02-24T11:11:36;10.80;99.90
21563;DHT22;10942;47.894;11.424;2023-02-24T11:14:20;10.70;99.90
21563;DHT22;10942;47.894;11.424;2023-02-24T11:17:20;10.60;99.90
21563;DHT22;10942;47.894;11.424;2023-02-24T11:20:23;10.60;99.90
21563;DHT22;10942;47.894;11.424;2023-02-24T11:22:51;10.70;99.90
21563;DHT22;10942;47.894;11.424;2023-02-24T11:25:37;10.70;99.90
21563;DHT22;10942;47.894;11.424;2023-02-24T11:31:25;10.70;99.90
21563;DHT22;10942;47.894;11.424;2023-02-24T11:34:05;10.70;99.90
21563;DHT22;10942;47.894;11.424;2023-02-24T11:37:24;10.80;99.90
21563;DHT22;10942;47.894;11.424;2023-02-24T11:41:58;10.60;99.90
21563;DHT22;10942;47.894;11.424;2023-02-24T11:47:17;10.50;99.90
21563;DHT22;10942;47.894;11.424;2023-02-24T11:50:02;10.50;99.90
21563;DHT22;10942;47.894;11.424;2023-02-24T11:52:33;10.60;99.90
21563;DHT22;10942;47.894;11.424;2023-02-24T11:55:02;10.60;99.90
21563;DHT22;10942;47.894;11.424;2023-02-24T11:57:35;10.50;99.90
21563;DHT22;10942;47.894;11.424;2023-02-24T12:00:07;10.50;99.90
21563;DHT22;10942;47.894;11.424;2023-02-24T12:02:46;10.60;99.90
21563;DHT22;10942;47.894;11.424;2023-02-24T12:05:17;10.60;99.90
21563;DHT22;10942;47.894;11.424;2023-02-24T12:07:49;10.60;99.90
21563;DHT22;10942;47.894;11.424;2023-02-24T12:12:56;10.50;99.90
21563;DHT22;10942;47.894;11.424;2023-02-24T12:18:23;10.70;99.90
21563;DHT22;10942;47.894;11.424;2023-02-24T12:20:56;10.80;99.90
21563;DHT22;10942;47.894;11.424;2023-02-24T12:23:39;10.80;99.90
21563;DHT22;10942;47.894;11.424;2023-02-24T12:26:21;10.90;99.90
21563;DHT22;10942;47.894;11.424;2023-02-24T12:40:08;11.20;99.90
21563;DHT22;10942;47.894;11.424;2023-02-24T12:45:32;11.20;99.90
21563;DHT22;10942;47.894;11.424;2023-02-24T12:53:22;11.40;99.90
21563;DHT22;10942;47.894;11.424;2023-02-24T12:56:16;11.40;99.90
21563;DHT22;10942;47.894;11.424;2023-02-24T12:58:46;11.50;99.90
21563;DHT22;10942;47.894;11.424;2023-02-24T13:09:40;11.70;99.90
21563;DHT22;10942;47.894;11.424;2023-02-24T13:14:51;11.90;99.90
21563;DHT22;10942;47.894;11.424;2023-02-24T13:17:23;11.80;99.90
21563;DHT22;10942;47.894;11.424;2023-02-24T13:19:52;11.90;99.90
21563;DHT22;10942;47.894;11.424;2023-02-24T13:22:22;11.80;99.90
21563;DHT22;10942;47.894;11.424;2023-02-24T13:24:55;11.80;99.90
21563;DHT22;10942;47.894;11.424;2023-02-24T13:27:52;11.80;99.90
21563;DHT22;10942;47.894;11.424;2023-02-24T13:32:43;11.70;99.90
21563;DHT22;10942;47.894;11.424;2023-02-24T13:37:43;11.70;99.90
21563;DHT22;10942;47.894;11.424;2023-02-24T13:40:19;11.70;99.90
21563;DHT22;10942;47.894;11.424;2023-02-24T13:43:00;11.60;99.90
21563;DHT22;10942;47.894;11.424;2023-02-24T13:45:37;11.60;99.90
21563;DHT22;10942;47.894;11.424;2023-02-24T13:48:36;11.60;99.90
21563;DHT22;10942;47.894;11.424;2023-02-24T13:51:39;11.70;99.90
21563;DHT22;10942;47.894;11.424;2023-02-24T13:56:58;11.60;99.90
21563;DHT22;10942;47.894;11.424;2023-02-24T14:02:11;11.70;99.90
21563;DHT22;10942;47.894;11.424;2023-02-24T14:04:44;11.70;99.90
21563;DHT22;10942;47.894;11.424;2023-02-24T14:07:25;11.50;99.90
21563;DHT22;10942;47.894;11.424;2023-02-24T14:10:15;11.50;99.90
21563;DHT22;10942;47.894;11.424;2023-02-24T14:12:44;11.40;99.90
21563;DHT22;10942;47.894;11.424;2023-02-24T14:15:14;11.40;99.90
21563;DHT22;10942;47.894;11.424;2023-02-24T14:17:40;11.30;99.90
21563;DHT22;10942;47.894;11.424;2023-02-24T14:22:41;11.20;99.90
21563;DHT22;10942;47.894;11.424;2023-02-24T14:25:10;11.20;99.90
21563;DHT22;10942;47.894;11.424;2023-02-24T14:27:36;11.20;99.90
21563;DHT22;10942;47.894;11.424;2023-02-24T14:30:04;11.20;99.90
21563;DHT22;10942;47.894;11.424;2023-02-24T14:32:31;11.10;99.90
21563;DHT22;10942;47.894;11.424;2023-02-24T14:34:57;11.10;99.90
21563;DHT22;10942;47.894;11.424;2023-02-24T14:37:27;11.00;99.90
21563;DHT22;10942;47.894;11.424;2023-02-24T14:39:56;11.00;99.90
21563;DHT22;10942;47.894;11.424;2023-02-24T14:42:23;11.10;99.90
21563;DHT22;10942;47.894;11.424;2023-02-24T14:44:50;11.10;99.90
21563;DHT22;10942;47.894;11.424;2023-02-24T14:47:18;11.10;99.90
21563;DHT22;10942;47.894;11.424;2023-02-24T14:49:56;11.20;99.90
21563;DHT22;10942;47.894;11.424;2023-02-24T14:55:15;11.20;99.90
21563;DHT22;10942;47.894;11.424;2023-02-24T14:58:02;11.20;99.90
21563;DHT22;10942;47.894;11.424;2023-02-24T15:00:33;11.20;99.90
21563;DHT22;10942;47.894;11.424;2023-02-24T15:03:24;11.20;99.90
21563;DHT22;10942;47.894;11.424;2023-02-24T15:05:55;11.20;99.90
21563;DHT22;10942;47.894;11.424;2023-02-24T15:08:33;11.10;99.90
21563;DHT22;10942;47.894;11.424;2023-02-24T15:11:00;11.10;99.90
21563;DHT22;10942;47.894;11.424;2023-02-24T15:13:39;11.20;99.90
21563;DHT22;10942;47.894;11.424;2023-02-24T15:16:12;11.10;99.90
21563;DHT22;10942;47.894;11.424;2023-02-24T15:18:39;11.10;99.90
21563;DHT22;10942;47.894;11.424;2023-02-24T15:21:07;11.10;99.90
21563;DHT22;10942;47.894;11.424;2023-02-24T15:23:42;11.00;99.90
21563;DHT22;10942;47.894;11.424;2023-02-24T15:26:31;11.00;99.90
21563;DHT22;10942;47.894;11.424;2023-02-24T15:29:13;11.10;99.90
21563;DHT22;10942;47.894;11.424;2023-02-24T15:31:39;11.00;99.90
21563;DHT22;10942;47.894;11.424;2023-02-24T15:34:18;11.00;99.90
21563;DHT22;10942;47.894;11.424;2023-02-24T15:36:48;10.90;99.90
21563;DHT22;10942;47.894;11.424;2023-02-24T15:39:21;10.90;99.90
21563;DHT22;10942;47.894;11.424;2023-02-24T15:41:50;10.90;99.90
21563;DHT22;10942;47.894;11.424;2023-02-24T15:44:27;10.90;99.90
21563;DHT22;10942;47.894;11.424;2023-02-24T15:46:54;10.90;99.90
21563;DHT22;10942;47.894;11.424;2023-02-24T15:49:20;10.80;99.90
21563;DHT22;10942;47.894;11.424;2023-02-24T15:51:48;10.90;99.90
21563;DHT22;10942;47.894;11.424;2023-02-24T15:54:29;10.80;99.90
21563;DHT22;10942;47.894;11.424;2023-02-24T15:57:00;10.80;99.90
21563;DHT22;10942;47.894;11.424;2023-02-24T15:59:27;10.70;99.90
21563;DHT22;10942;47.894;11.424;2023-02-24T16:01:52;10.80;99.90
21563;DHT22;10942;47.894;11.424;2023-02-24T16:04:18;10.70;99.90
21563;DHT22;10942;47.894;11.424;2023-02-24T16:06:48;10.70;99.90
21563;DHT22;10942;47.894;11.424;2023-02-24T16:09:34;10.60;99.90
21563;DHT22;10942;47.894;11.424;2023-02-24T16:12:07;10.60;99.90
21563;DHT22;10942;47.894;11.424;2023-02-24T16:14:35;10.50;99.90
21563;DHT22;10942;47.894;11.424;2023-02-24T16:17:04;10.40;99.90
21563;DHT22;10942;47.894;11.424;2023-02-24T16:19:31;10.40;99.90
21563;DHT22;10942;47.894;11.424;2023-02-24T16:21:56;10.30;99.90
21563;DHT22;10942;47.894;11.424;2023-02-24T16:24:22;10.20;99.90
21563;DHT22;10942;47.894;11.424;2023-02-24T16:26:48;10.20;99.90
21563;DHT22;10942;47.894;11.424;2023-02-24T16:29:14;10.20;99.90
21563;DHT22;10942;47.894;11.424;2023-02-24T16:31:40;10.10;99.90
21563;DHT22;10942;47.894;11.424;2023-02-24T16:34:06;10.10;99.90
21563;DHT22;10942;47.894;11.424;2023-02-24T16:36:33;10.10;99.90
21563;DHT22;10942;47.894;11.424;2023-02-24T16:38:59;10.10;99.90
21563;DHT22;10942;47.894;11.424;2023-02-24T16:41:25;10.00;99.90
21563;DHT22;10942;47.894;11.424;2023-02-24T16:43:51;9.90;99.90
21563;DHT22;10942;47.894;11.424;2023-02-24T16:46:19;9.80;99.90
21563;DHT22;10942;47.894;11.424;2023-02-24T16:48:48;9.80;99.90
21563;DHT22;10942;47.894;11.424;2023-02-24T16:51:15;9.80;99.90
21563;DHT22;10942;47.894;11.424;2023-02-24T16:53:41;9.80;99.90
21563;DHT22;10942;47.894;11.424;2023-02-24T16:56:08;9.70;99.90
21563;DHT22;10942;47.894;11.424;2023-02-24T16:58:34;9.70;99.90
21563;DHT22;10942;47.894;11.424;2023-02-24T17:01:00;9.70;99.90
21563;DHT22;10942;47.894;11.424;2023-02-24T17:03:42;9.70;99.90
21563;DHT22;10942;47.894;11.424;2023-02-24T17:06:08;9.60;99.90
21563;DHT22;10942;47.894;11.424;2023-02-24T17:08:34;9.70;99.90
21563;DHT22;10942;47.894;11.424;2023-02-24T17:11:00;9.60;99.90
21563;DHT22;10942;47.894;11.424;2023-02-24T17:13:26;9.60;99.90
21563;DHT22;10942;47.894;11.424;2023-02-24T17:15:52;9.50;99.90
21563;DHT22;10942;47.894;11.424;2023-02-24T17:18:20;9.50;99.90
21563;DHT22;10942;47.894;11.424;2023-02-24T17:20:46;9.50;99.90
21563;DHT22;10942;47.894;11.424;2023-02-24T17:23:12;9.40;99.90
21563;DHT22;10942;47.894;11.424;2023-02-24T17:25:38;9.50;99.90
21563;DHT22;10942;47.894;11.424;2023-02-24T17:28:04;9.50;99.90
21563;DHT22;10942;47.894;11.424;2023-02-24T17:30:32;9.40;99.90
21563;DHT22;10942;47.894;11.424;2023-02-24T17:32:59;9.30;99.90
21563;DHT22;10942;47.894;11.424;2023-02-24T17:35:26;9.20;99.90
21563;DHT22;10942;47.894;11.424;2023-02-24T17:37:52;9.30;99.90
21563;DHT22;10942;47.894;11.424;2023-02-24T17:40:18;9.20;99.90
21563;DHT22;10942;47.894;11.424;2023-02-24T17:42:44;9.30;99.90
21563;DHT22;10942;47.894;11.424;2023-02-24T17:45:11;9.10;99.90
21563;DHT22;10942;47.894;11.424;2023-02-24T17:47:37;9.00;99.90
21563;DHT22;10942;47.894;11.424;2023-02-24T17:50:04;9.00;99.90
21563;DHT22;10942;47.894;11.424;2023-02-24T17:52:30;9.10;99.90
21563;DHT22;10942;47.894;11.424;2023-02-24T17:54:57;9.00;99.90
21563;DHT22;10942;47.894;11.424;2023-02-24T17:57:23;8.90;99.90
21563;DHT22;10942;47.894;11.424;2023-02-24T17:59:48;8.90;99.90
21563;DHT22;10942;47.894;11.424;2023-02-24T18:02:16;8.90;99.90
21563;DHT22;10942;47.894;11.424;2023-02-24T18:04:42;8.90;99.90
21563;DHT22;10942;47.894;11.424;2023-02-24T18:07:10;8.90;99.90
21563;DHT22;10942;47.894;11.424;2023-02-24T18:09:36;8.90;99.90
21563;DHT22;10942;47.894;11.424;2023-02-24T18:12:02;8.90;99.90
21563;DHT22;10942;47.894;11.424;2023-02-24T18:14:28;8.80;99.90
21563;DHT22;10942;47.894;11.424;2023-02-24T18:16:54;8.80;99.90
21563;DHT22;10942;47.894;11.424;2023-02-24T18:19:19;8.60;99.90
21563;DHT22;10942;47.894;11.424;2023-02-24T18:21:45;8.60;99.90